Flight Briefing for CPX792

Departure Arrival
Auckland International Airport (NZAA)
Click to view FAA NOTAMS
Kingsford Smith International Airport (YSSY)
Click to view FAA NOTAMS
Departure Time Arrival Time
N/A N/A
Aircraft Distance
MD-11SF 1167nm
Departure METAR Arrival METAR
NZAA 152130Z AUTO 21016KT 9999 NCD 22/14 Q1013 NOSIG YSSY 152130Z 29004KT 9999 FEW035 BKN300 22/15 Q1021 NOSIG
Suggested Route
MADEP N774 MARLN


View recent IFR Routes data
Notes



Charts and Procedures

Charts for NZAA
No chart available
Charts for YSSY
No chart available

Ventusky Weather